Time;durP1;ratioP1;P1;durP2;ratioP2;P2;SDS_P1;SDS_P2;PMS_P1;PMS_P2;Temp;Humidity;BMP_temperature;BMP_pressure;BME280_temperature;BME280_humidity;BME280_pressure;Samples;Min_cycle;Max_cycle;Signal;HPM_P1;HPM_P2
2023/10/17 00:01:21;;;;;;;24.77;14.25;;;;;;;2.84;78.49;100699.59;1811997;79;25438;-65
2023/10/17 00:03:51;;;;;;;18.65;12.07;;;;;;;2.78;78.35;100693.38;1812287;79;27410;-64
2023/10/17 00:06:22;;;;;;;24.75;12.63;;;;;;;2.73;78.46;100700.79;1812005;79;25526;-64
2023/10/17 00:08:50;;;;;;;22.87;13.32;;;;;;;2.70;77.99;100705.28;1812152;79;25383;-65
2023/10/17 00:11:20;;;;;;;19.00;12.47;;;;;;;2.66;78.32;100710.84;1811246;79;25698;-65
2023/10/17 00:13:59;;;;;;;22.32;12.23;;;;;;;2.62;78.23;100712.38;1811428;79;25518;-64
2023/10/17 00:16:30;;;;;;;21.85;11.83;;;;;;;2.57;78.71;100706.96;1811312;79;27201;-64
2023/10/17 00:19:01;;;;;;;20.57;12.88;;;;;;;2.56;78.70;100708.03;1811585;79;25920;-64
2023/10/17 00:21:26;;;;;;;20.32;11.35;;;;;;;2.53;79.00;100715.20;1812144;79;25486;-64
2023/10/17 00:23:52;;;;;;;21.02;12.03;;;;;;;2.49;78.62;100707.41;1812308;79;25613;-64
2023/10/17 00:26:19;;;;;;;19.35;11.43;;;;;;;2.45;78.39;100709.72;1812372;79;25407;-64
2023/10/17 00:28:51;;;;;;;25.27;12.28;;;;;;;2.41;78.42;100712.08;1812233;79;28239;-65
2023/10/17 00:31:20;;;;;;;24.60;12.37;;;;;;;2.36;78.30;100709.33;1812096;79;25598;-65
2023/10/17 00:33:48;;;;;;;22.82;13.53;;;;;;;2.32;78.48;100705.55;1812260;79;25591;-64
2023/10/17 00:36:16;;;;;;;23.60;12.68;;;;;;;2.29;78.89;100706.56;1812208;79;26131;-65
2023/10/17 00:38:43;;;;;;;20.00;12.00;;;;;;;2.26;79.14;100706.51;1812338;79;25519;-63
2023/10/17 00:41:27;;;;;;;24.35;12.30;;;;;;;2.24;79.34;100710.75;1812241;79;27509;-64
2023/10/17 00:43:43;;;;;;;16.55;9.03;;;;;;;2.21;79.19;100713.93;1811916;79;25604;-65
2023/10/17 00:46:11;;;;;;;18.12;10.30;;;;;;;2.17;79.16;100709.31;1781414;79;25575;-64
2023/10/17 00:48:39;;;;;;;19.05;11.40;;;;;;;2.13;79.29;100713.50;1812226;79;26388;-64
2023/10/17 00:51:08;;;;;;;20.43;11.48;;;;;;;2.11;79.65;100714.27;1812281;79;25357;-64
2023/10/17 00:53:39;;;;;;;16.42;10.03;;;;;;;2.12;79.93;100715.36;1812378;79;27284;-64
2023/10/17 00:56:08;;;;;;;19.12;10.55;;;;;;;2.12;80.14;100715.90;1812138;79;25775;-64
2023/10/17 00:58:34;;;;;;;18.82;10.05;;;;;;;2.11;80.15;100717.77;1812263;79;25599;-65
2023/10/17 01:01:23;;;;;;;17.20;10.25;;;;;;;2.10;80.16;100720.14;1812186;79;25781;-65
2023/10/17 01:03:54;;;;;;;15.65;9.35;;;;;;;2.07;79.99;100713.95;1812076;79;25589;-64
2023/10/17 01:09:05;;;;;;;16.97;10.13;;;;;;;2.02;80.01;100717.87;1812222;79;25513;-65
2023/10/17 01:11:29;;;;;;;;;;;;;;;1.98;80.56;100717.54;1814761;79;25748;-65
2023/10/17 01:14:00;;;;;;;20.65;11.83;;;;;;;1.99;81.01;100719.67;1812189;79;25497;-64
2023/10/17 01:16:27;;;;;;;20.02;11.22;;;;;;;2.00;81.44;100715.97;1812357;79;25382;-64
2023/10/17 01:18:55;;;;;;;20.32;12.05;;;;;;;2.03;81.75;100718.16;1812264;79;27723;-65
2023/10/17 01:21:23;;;;;;;;;;;;;;;2.06;81.74;100715.02;1814838;79;25399;-65
2023/10/17 01:23:51;;;;;;;19.95;11.20;;;;;;;2.06;81.63;100716.35;1812247;79;25702;-65
2023/10/17 01:26:26;;;;;;;22.32;11.73;;;;;;;2.06;81.44;100719.02;1812359;79;25666;-65
2023/10/17 01:28:55;;;;;;;20.25;11.00;;;;;;;2.05;81.49;100716.86;1812294;79;25422;-65
2023/10/17 01:31:23;;;;;;;20.37;11.28;;;;;;;2.05;81.48;100716.05;1812231;79;27308;-65
2023/10/17 01:33:56;;;;;;;18.57;10.85;;;;;;;2.05;81.29;100723.53;1812091;79;25370;-65
2023/10/17 01:36:23;;;;;;;23.38;11.00;;;;;;;2.05;81.50;100722.73;1812290;79;25455;-65
2023/10/17 01:38:50;;;;;;;18.85;11.40;;;;;;;2.05;81.33;100722.73;1812287;79;26027;-65
2023/10/17 01:41:21;;;;;;;21.55;11.40;;;;;;;2.03;81.45;100716.83;1812214;79;25532;-65
2023/10/17 01:43:48;;;;;;;;;;;;;;;2.03;81.52;100714.96;1814968;79;27863;-65
2023/10/17 01:46:28;;;;;;;17.05;10.80;;;;;;;2.06;82.23;100719.02;1812140;79;25364;-65
2023/10/17 01:48:55;;;;;;;23.12;12.45;;;;;;;2.09;82.58;100719.05;1812118;78;25537;-65
2023/10/17 01:51:24;;;;;;;22.42;12.28;;;;;;;2.12;82.41;100721.23;1812301;79;25618;-65
2023/10/17 01:53:52;;;;;;;24.47;11.78;;;;;;;2.15;82.91;100723.42;1812461;79;25530;-64
2023/10/17 01:56:25;;;;;;;20.45;11.45;;;;;;;2.17;82.82;100721.32;1803866;79;27294;-64
2023/10/17 01:58:51;;;;;;;23.73;12.47;;;;;;;2.19;82.90;100720.55;1803631;79;25401;-64
2023/10/17 02:01:29;;;;;;;24.02;12.45;;;;;;;2.20;82.94;100718.97;1803687;79;25507;-64
2023/10/17 02:04:05;;;;;;;19.12;10.93;;;;;;;2.22;82.91;100722.73;1803642;79;25610;-63
2023/10/17 02:06:33;;;;;;;20.02;11.38;;;;;;;2.24;83.16;100724.09;1803731;79;25531;-63
2023/10/17 02:09:18;;;;;;;18.92;10.65;;;;;;;2.27;83.16;100724.69;1803624;79;27295;-63
2023/10/17 02:11:40;;;;;;;20.43;11.97;;;;;;;2.26;82.89;100722.52;1804331;79;25610;-63
2023/10/17 02:14:01;;;;;;;23.38;11.88;;;;;;;2.28;83.12;100723.62;1804126;79;25776;-63
2023/10/17 02:16:32;;;;;;;21.23;12.23;;;;;;;2.27;83.10;100718.02;1803902;79;25570;-63
2023/10/17 02:19:03;;;;;;;22.95;11.83;;;;;;;2.28;83.17;100720.41;1803848;79;25537;-64
2023/10/17 02:21:28;;;;;;;17.82;11.60;;;;;;;2.29;83.19;100725.25;1803940;79;27990;-64
2023/10/17 02:23:57;;;;;;;22.17;12.65;;;;;;;2.29;83.37;100730.05;1803625;79;25565;-64
2023/10/17 02:26:28;;;;;;;23.40;12.73;;;;;;;2.31;83.36;100732.48;1803714;79;25479;-64
2023/10/17 02:28:59;;;;;;;;;;;;;;;2.31;83.48;100728.48;1806298;79;25621;-65
2023/10/17 02:31:29;;;;;;;15.72;10.78;;;;;;;2.32;83.26;100732.78;1803763;79;25585;-64
2023/10/17 02:33:57;;;;;;;20.65;11.73;;;;;;;2.31;83.30;100733.81;1803636;79;27292;-63
2023/10/17 02:36:26;;;;;;;19.55;11.55;;;;;;;2.29;83.28;100738.06;1803530;79;25538;-63
2023/10/17 02:38:54;;;;;;;21.75;11.40;;;;;;;2.30;83.42;100733.02;1803816;79;34703;-63
2023/10/17 02:41:22;;;;;;;22.35;10.40;;;;;;;2.31;83.48;100733.81;1803573;79;26213;-64
2023/10/17 02:43:54;;;;;;;19.73;10.63;;;;;;;2.30;83.42;100737.02;1803926;79;25365;-65
2023/10/17 02:46:27;;;;;;;19.98;10.28;;;;;;;2.29;83.11;100738.06;1803662;79;28196;-65
2023/10/17 02:48:59;;;;;;;19.40;11.65;;;;;;;2.24;82.75;100737.45;1803595;79;25572;-64
2023/10/17 02:53:56;;;;;;;18.10;10.32;;;;;;;2.16;82.28;100735.20;1803561;79;25614;-64
2023/10/17 02:56:27;;;;;;;16.42;10.40;;;;;;;2.11;82.00;100743.13;1808344;79;25531;-66
2023/10/17 02:59:07;;;;;;;18.30;10.28;;;;;;;2.05;81.86;100748.87;1809100;79;27277;-65
2023/10/17 03:01:38;;;;;;;19.20;10.28;;;;;;;2.01;81.67;100750.42;1809010;79;25501;-64
2023/10/17 03:04:08;;;;;;;16.50;9.98;;;;;;;1.95;81.49;100747.37;1809081;79;25442;-64
2023/10/17 03:06:40;;;;;;;;;;;;;;;1.90;81.29;100751.81;1811691;79;25589;-65
2023/10/17 03:09:34;;;;;;;18.32;10.15;;;;;;;1.83;81.48;100752.77;1809046;79;25368;-64
2023/10/17 03:14:40;;;;;;;15.78;10.32;;;;;;;1.72;81.44;100745.64;1808935;79;25367;-64
2023/10/17 03:17:09;;;;;;;;;;;;;;;1.68;81.29;100746.61;1811691;79;25529;-64
2023/10/17 03:19:38;;;;;;;16.62;9.30;;;;;;;1.63;81.39;100751.85;1808965;79;26624;-65
2023/10/17 03:22:20;;;;;;;16.52;9.65;;;;;;;1.58;81.45;100757.09;1809206;79;25514;-64
2023/10/17 03:24:51;;;;;;;18.15;9.60;;;;;;;1.52;81.34;100768.72;1809056;78;28388;-64
2023/10/17 03:27:35;;;;;;;17.37;10.40;;;;;;;1.46;81.46;100767.82;1808936;79;25379;-64
2023/10/17 03:29:53;;;;;;;16.52;9.50;;;;;;;1.43;81.39;100773.63;1808124;79;25476;-64
2023/10/17 03:32:22;;;;;;;17.55;9.68;;;;;;;1.38;81.22;100772.69;1808954;79;25576;-64
2023/10/17 03:34:56;;;;;;;14.40;9.93;;;;;;;1.33;81.17;100773.91;1808625;79;25565;-64
2023/10/17 03:39:56;;;;;;;;;;;;;;;1.24;80.99;100758.81;1811550;79;25373;-64
2023/10/17 03:45:13;;;;;;;18.70;10.53;;;;;;;1.16;80.77;100759.17;1809135;79;26251;-65
2023/10/17 03:47:40;;;;;;;15.78;9.30;;;;;;;1.11;80.74;100767.36;1808971;79;25529;-64
2023/10/17 03:50:08;;;;;;;16.45;9.88;;;;;;;1.06;81.00;100759.26;1808978;79;27286;-64
2023/10/17 03:52:36;;;;;;;14.95;9.20;;;;;;;1.01;80.71;100764.48;1808872;79;25601;-65
2023/10/17 03:55:10;;;;;;;18.60;10.65;;;;;;;0.98;80.72;100770.27;1776833;79;25545;-64
2023/10/17 03:57:52;;;;;;;16.97;10.15;;;;;;;0.93;80.78;100770.95;1811982;79;25622;-64
2023/10/17 04:00:25;;;;;;;;;;;;;;;0.88;80.74;100769.52;1814028;79;25534;-64
2023/10/17 04:02:38;;;;;;;15.18;10.65;;;;;;;0.85;80.27;100777.16;1808249;79;27287;-65
2023/10/17 04:05:11;;;;;;;18.20;10.10;;;;;;;0.78;80.08;100774.61;1812264;79;25547;-63
2023/10/17 04:07:36;;;;;;;;;;;;;;;0.73;80.18;100770.50;1814847;79;25379;-63
2023/10/17 04:15:27;;;;;;;19.65;10.40;;;;;;;0.60;80.40;100782.20;1812118;79;27897;-63
2023/10/17 04:17:58;;;;;;;25.02;10.98;;;;;;;0.54;80.82;100777.80;1812021;79;25596;-63
2023/10/17 04:20:22;;;;;;;20.27;11.60;;;;;;;0.54;81.90;100784.45;1812091;79;25380;-63
2023/10/17 04:22:49;;;;;;;21.93;10.13;;;;;;;0.55;82.04;100778.09;1812130;79;25660;-63
2023/10/17 04:25:34;;;;;;;16.93;10.93;;;;;;;0.54;82.33;100781.78;1812234;79;25561;-64
2023/10/17 04:27:54;;;;;;;24.45;12.28;;;;;;;0.54;82.60;100776.46;1808949;79;27673;-64
2023/10/17 04:30:28;;;;;;;20.30;11.73;;;;;;;0.58;83.11;100771.48;1812218;79;25516;-64
2023/10/17 04:32:52;;;;;;;25.43;12.33;;;;;;;0.60;82.95;100770.76;1811947;79;25430;-64
2023/10/17 04:35:21;;;;;;;;;;;;;;;0.59;82.88;100774.45;1814799;79;25614;-64
2023/10/17 04:40:50;;;;;;;20.35;11.05;;;;;;;0.62;83.29;100784.11;1812185;79;27697;-65
2023/10/17 04:45:44;;;;;;;19.75;11.28;;;;;;;0.60;82.53;100785.40;1776649;80;25655;-63
2023/10/17 04:48:12;;;;;;;18.48;11.50;;;;;;;0.60;82.96;100788.06;1718244;83;26206;-62
2023/10/17 04:50:55;;;;;;;23.12;13.88;;;;;;;0.60;83.21;100784.07;1776656;80;25427;-64
2023/10/17 04:53:28;;;;;;;23.83;12.40;;;;;;;0.61;83.13;100789.13;1717281;83;27348;-63
2023/10/17 04:58:39;;;;;;;27.35;11.83;;;;;;;0.60;82.95;100796.05;1785239;80;25550;-62
2023/10/17 05:03:32;;;;;;;18.75;11.10;;;;;;;0.55;82.84;100796.73;1785130;80;25626;-64
2023/10/17 05:09:04;;;;;;;25.30;11.95;;;;;;;0.53;83.26;100798.81;1785033;80;25572;-62
2023/10/17 06:17:40;;;;;;;23.07;13.80;;;;;;;1.17;86.22;100860.20;1783468;79;25505;-62
2023/10/17 06:20:12;;;;;;;;;;;;;;;1.27;86.49;100864.95;1806351;79;25500;-62
2023/10/17 06:33:37;;;;;;;35.58;17.37;;;;;;;1.99;89.61;100879.27;1803692;79;25489;-64
2023/10/17 06:36:24;;;;;;;36.38;16.93;;;;;;;2.31;90.98;100880.64;1803561;79;25636;-62
2023/10/17 06:38:46;;;;;;;30.48;17.27;;;;;;;2.55;91.80;100872.78;1804248;79;25379;-60
2023/10/17 06:41:41;;;;;;;33.75;18.65;;;;;;;2.91;92.98;100884.09;1803708;79;27186;-60
2023/10/17 06:44:06;;;;;;;38.92;19.92;;;;;;;3.27;94.00;100882.45;1803508;79;25363;-61
2023/10/17 06:46:55;;;;;;;32.30;20.60;;;;;;;3.71;95.61;100882.52;1803902;79;25510;-61
2023/10/17 06:50:17;;;;;;;36.83;22.07;;;;;;;4.06;95.78;100885.35;1803692;79;26327;-62
2023/10/17 06:54:52;;;;;;;37.85;22.58;;;;;;;4.77;95.36;100883.91;1803623;79;27241;-62
2023/10/17 06:57:19;;;;;;;37.80;21.52;;;;;;;5.15;95.67;100887.94;1807459;79;25384;-63
2023/10/17 06:59:51;;;;;;;36.33;21.17;;;;;;;5.42;93.77;100885.16;1808960;79;25514;-63
2023/10/17 07:02:34;;;;;;;34.83;21.00;;;;;;;5.61;92.01;100890.89;1809017;79;26418;-63
2023/10/17 07:05:04;;;;;;;34.25;20.15;;;;;;;5.89;91.67;100894.23;1809097;79;25520;-63
2023/10/17 07:07:40;;;;;;;;;;;;;;;6.33;93.71;100896.54;1811798;79;27295;-63
2023/10/17 07:13:09;;;;;;;33.13;18.55;;;;;;;6.95;89.95;100894.73;1792667;79;25425;-63
2023/10/17 07:15:37;;;;;;;35.68;20.30;;;;;;;7.35;90.55;100900.33;1792717;80;26202;-63
2023/10/17 07:23:40;;;;;;;25.17;14.68;;;;;;;8.64;87.82;100897.34;1725872;83;25710;-63
2023/10/17 07:26:10;;;;;;;21.02;14.03;;;;;;;9.23;86.89;100894.69;1725496;82;25477;-64
2023/10/17 07:28:42;;;;;;;21.97;14.20;;;;;;;9.66;85.34;100900.19;1725875;83;26326;-63
2023/10/17 07:31:10;;;;;;;21.37;13.50;;;;;;;9.98;83.86;100894.69;1725853;83;25560;-63
2023/10/17 07:33:35;;;;;;;;;;;;;;;10.40;83.23;100895.74;1728123;83;27292;-64
2023/10/17 07:36:03;;;;;;;22.05;13.48;;;;;;;10.97;82.59;100903.80;1725819;83;25580;-63
2023/10/17 07:38:31;;;;;;;20.40;12.65;;;;;;;11.46;81.12;100896.97;1726079;83;25585;-64
2023/10/17 07:41:12;;;;;;;19.48;12.35;;;;;;;11.92;79.46;100888.52;1725949;83;25572;-64
2023/10/17 07:43:32;;;;;;;22.25;12.93;;;;;;;12.43;78.70;100890.63;1723891;83;25687;-64
2023/10/17 07:46:06;;;;;;;16.42;11.40;;;;;;;12.80;76.54;100894.91;1726056;83;28401;-64
2023/10/17 07:48:28;;;;;;;20.25;11.15;;;;;;;13.18;75.25;100892.36;1725428;82;25526;-63
2023/10/17 07:50:57;;;;;;;17.52;12.18;;;;;;;13.56;73.23;100889.98;1735750;82;25392;-64
2023/10/17 07:53:32;;;;;;;18.20;11.20;;;;;;;13.82;72.07;100899.60;1759937;81;26469;-63
2023/10/17 07:56:12;;;;;;;18.50;10.72;;;;;;;14.15;71.41;100899.17;1808826;79;25423;-62
2023/10/17 07:58:41;;;;;;;17.25;10.78;;;;;;;14.55;70.56;100896.87;1810317;79;27380;-63
2023/10/17 08:01:16;;;;;;;16.10;10.60;;;;;;;15.07;70.12;100902.28;1811955;79;25823;-63
2023/10/17 08:03:54;;;;;;;17.23;9.40;;;;;;;15.47;68.10;100901.97;1812198;79;25554;-64
2023/10/17 08:06:20;;;;;;;15.32;9.40;;;;;;;15.82;66.69;100914.70;1808266;79;25555;-64
2023/10/17 08:08:46;;;;;;;17.75;9.35;;;;;;;15.93;64.62;100902.26;1811459;79;25549;-63
2023/10/17 08:11:31;;;;;;;16.87;10.20;;;;;;;16.22;63.79;100905.52;1812107;79;28349;-63
2023/10/17 08:14:08;;;;;;;20.27;9.88;;;;;;;16.34;62.26;100908.09;1811887;79;25609;-64
2023/10/17 08:16:33;;;;;;;18.20;9.53;;;;;;;16.55;61.99;100903.97;1811595;79;25454;-65
2023/10/17 08:19:16;;;;;;;18.77;9.03;;;;;;;17.03;61.90;100908.06;1812043;79;25594;-64
2023/10/17 08:27:13;;;;;;;16.17;9.25;;;;;;;18.32;58.65;100909.22;1714528;83;25700;-64
2023/10/17 08:29:42;;;;;;;12.53;8.67;;;;;;;18.62;57.79;100905.59;1690335;84;25576;-65
2023/10/17 08:32:38;;;;;;;16.85;9.03;;;;;;;18.92;56.23;100907.42;1690108;84;25626;-64
2023/10/17 08:34:45;;;;;;;20.45;9.18;;;;;;;19.13;55.80;100911.30;1686791;84;25675;-64
2023/10/17 08:37:26;;;;;;;12.37;9.00;;;;;;;19.56;54.47;100912.95;1690356;84;27562;-64
2023/10/17 08:42:25;;;;;;;14.25;8.20;;;;;;;19.77;52.75;100913.49;1690226;84;25676;-64
2023/10/17 08:44:50;;;;;;;15.35;7.87;;;;;;;20.18;52.00;100915.97;1688613;84;26357;-64
2023/10/17 08:47:18;;;;;;;14.43;8.05;;;;;;;20.45;50.75;100918.31;1690143;84;25589;-64
2023/10/17 08:49:49;;;;;;;17.73;8.48;;;;;;;20.47;49.19;100917.37;1690235;84;28281;-64
2023/10/17 08:52:34;;;;;;;;;;;;;;;20.43;48.70;100909.64;1692619;84;25870;-64
2023/10/17 08:54:58;;;;;;;12.45;6.65;;;;;;;20.54;47.92;100909.84;1690214;84;25664;-64
2023/10/17 08:57:25;;;;;;;9.70;6.12;;;;;;;20.70;47.46;100904.29;1689655;84;26461;-64
2023/10/17 09:02:29;;;;;;;;;;;;;;;21.16;47.26;100902.97;1691917;84;27761;-64
2023/10/17 09:05:12;;;;;;;9.48;5.15;;;;;;;21.50;46.19;100905.92;1728770;82;25769;-64
2023/10/17 09:07:42;;;;;;;11.10;5.47;;;;;;;21.81;46.11;100906.22;1736921;82;25548;-64
2023/10/17 09:10:20;;;;;;;10.00;4.60;;;;;;;22.05;44.71;100910.27;1737718;82;26176;-63
2023/10/17 09:13:43;;;;;;;8.83;4.80;;;;;;;21.90;43.70;100914.81;1738769;82;25382;-64
2023/10/17 09:16:08;;;;;;;7.80;4.15;;;;;;;22.04;43.97;100912.24;1751660;81;27745;-64
2023/10/17 09:18:32;;;;;;;11.20;4.70;;;;;;;22.36;43.45;100912.70;1742257;82;25551;-64
2023/10/17 09:21:03;;;;;;;7.58;3.85;;;;;;;22.61;42.87;100907.27;1744281;82;25387;-64
2023/10/17 09:23:32;;;;;;;7.37;4.40;;;;;;;22.78;42.13;100907.27;1713545;82;26275;-63
2023/10/17 09:28:42;;;;;;;8.80;3.67;;;;;;;23.33;41.80;100903.87;1649435;85;27510;-65
2023/10/17 09:31:12;;;;;;;7.00;3.52;;;;;;;23.66;40.61;100906.50;1648827;87;25476;-64
2023/10/17 09:33:48;;;;;;;7.85;3.72;;;;;;;23.62;39.47;100911.21;1648906;87;25532;-64
2023/10/17 09:36:17;;;;;;;7.47;4.00;;;;;;;23.30;38.18;100899.92;1648929;87;25643;-64
2023/10/17 09:38:46;;;;;;;8.08;3.50;;;;;;;23.25;38.91;100901.05;1648932;87;25661;-64
2023/10/17 09:41:18;;;;;;;9.65;3.58;;;;;;;23.67;39.03;100906.71;1649100;87;28039;-64
2023/10/17 09:43:49;;;;;;;6.78;3.85;;;;;;;23.83;38.24;100897.38;1648945;87;26017;-64
2023/10/17 09:46:27;;;;;;;7.97;3.85;;;;;;;24.06;37.86;100895.74;1648981;87;25532;-65
2023/10/17 09:49:00;;;;;;;8.35;4.35;;;;;;;24.39;38.23;100896.67;1648975;87;26601;-63
2023/10/17 09:51:37;;;;;;;7.83;3.70;;;;;;;24.54;37.47;100896.95;1629541;87;25483;-64
2023/10/17 09:54:04;;;;;;;8.75;3.92;;;;;;;24.51;36.34;100892.77;1628048;88;27919;-67
2023/10/17 09:56:44;;;;;;;5.45;3.75;;;;;;;24.97;36.61;100883.80;1657127;85;25434;-66
2023/10/17 09:59:18;;;;;;;6.35;3.75;;;;;;;25.37;35.18;100892.15;1637730;87;25605;-65
2023/10/17 10:04:18;;;;;;;10.08;3.92;;;;;;;26.39;34.38;100894.30;1642752;87;25714;-65
2023/10/17 10:06:45;;;;;;;6.28;3.20;;;;;;;27.09;33.94;100884.61;1715064;82;27332;-65
2023/10/17 10:09:26;;;;;;;9.10;3.87;;;;;;;27.69;33.05;100883.12;1714771;83;25564;-63
2023/10/17 10:11:53;;;;;;;7.85;4.45;;;;;;;27.67;32.18;100884.11;1714290;83;25623;-68
2023/10/17 10:14:36;;;;;;;7.90;3.92;;;;;;;27.65;32.28;100876.78;1714833;83;25621;-68
2023/10/17 10:17:04;;;;;;;11.90;3.95;;;;;;;27.76;32.59;100874.09;1714846;83;25572;-69
2023/10/17 10:19:49;;;;;;;10.60;4.15;;;;;;;27.89;31.92;100877.72;1715112;83;27353;-69
2023/10/17 10:22:17;;;;;;;10.10;4.15;;;;;;;27.84;31.77;100870.64;1714760;83;25621;-67
2023/10/17 10:24:47;;;;;;;10.43;4.03;;;;;;;27.48;30.85;100862.69;1715047;83;25596;-70
2023/10/17 10:27:27;;;;;;;6.45;3.52;;;;;;;27.00;30.47;100865.64;1713024;82;25729;-64
2023/10/17 10:30:17;;;;;;;10.88;5.05;;;;;;;26.52;30.68;100876.63;1714886;83;25415;-64
2023/10/17 10:32:44;;;;;;;10.95;5.12;;;;;;;26.31;31.18;100870.59;1714800;83;27926;-64
2023/10/17 10:35:11;;;;;;;9.25;4.22;;;;;;;26.22;31.33;100867.66;1714781;83;25497;-64
2023/10/17 10:37:54;;;;;;;12.88;5.87;;;;;;;26.32;31.50;100859.08;1714815;83;25621;-63
2023/10/17 10:40:25;;;;;;;7.62;4.47;;;;;;;26.16;30.50;100865.09;1714895;83;25683;-64
2023/10/17 10:42:59;;;;;;;7.70;3.92;;;;;;;26.07;31.29;100861.38;1714864;83;25415;-64
2023/10/17 10:45:35;;;;;;;6.20;3.65;;;;;;;26.14;29.91;100862.55;1714850;83;27336;-63
2023/10/17 10:48:17;;;;;;;7.15;3.33;;;;;;;25.73;30.57;100857.69;1714767;83;25540;-65
2023/10/17 10:50:48;;;;;;;8.03;4.45;;;;;;;25.61;30.66;100857.30;1714875;83;25591;-64
2023/10/17 10:53:29;;;;;;;8.58;4.78;;;;;;;25.69;31.25;100849.99;1714839;83;25680;-61
2023/10/17 10:56:08;;;;;;;11.33;6.80;;;;;;;26.04;31.15;100841.98;1714870;83;25398;-62
2023/10/17 10:58:42;;;;;;;9.88;5.05;;;;;;;26.07;31.02;100846.73;1714715;83;28425;-63
2023/10/17 11:01:09;;;;;;;7.75;3.20;;;;;;;25.65;30.31;100846.42;1714917;83;25760;-62
2023/10/17 11:03:44;;;;;;;6.95;4.45;;;;;;;25.11;29.74;100835.38;1718745;83;25444;-62
2023/10/17 11:06:10;;;;;;;5.90;3.47;;;;;;;24.52;29.51;100837.08;1722341;83;26294;-63
2023/10/17 11:08:41;;;;;;;9.33;4.85;;;;;;;23.53;29.88;100844.50;1721369;83;25581;-62
2023/10/17 11:11:14;;;;;;;8.93;4.60;;;;;;;22.56;30.15;100837.53;1714078;83;27253;-62
2023/10/17 11:13:49;;;;;;;5.47;3.17;;;;;;;21.49;30.56;100833.36;1713093;83;25629;-62
2023/10/17 11:16:21;;;;;;;5.65;3.35;;;;;;;20.52;31.40;100840.73;1714063;83;25630;-63
2023/10/17 11:18:48;;;;;;;8.28;4.37;;;;;;;19.65;32.27;100846.91;1714046;83;26156;-64
2023/10/17 11:21:22;;;;;;;6.35;4.03;;;;;;;19.22;33.74;100842.56;1714079;83;25481;-63
2023/10/17 11:24:04;;;;;;;8.15;4.08;;;;;;;18.80;33.97;100841.70;1714081;83;27380;-64
2023/10/17 11:26:35;;;;;;;9.68;4.30;;;;;;;18.88;36.82;100832.52;1713992;83;25529;-63
2023/10/17 11:29:03;;;;;;;9.58;3.87;;;;;;;19.70;36.44;100826.86;1714048;83;25542;-62
2023/10/17 11:31:31;;;;;;;5.50;3.53;;;;;;;20.41;35.99;100816.36;1714231;83;25608;-62
2023/10/17 11:34:07;;;;;;;11.48;3.60;;;;;;;20.55;34.47;100818.58;1714052;83;25553;-63
2023/10/17 11:36:35;;;;;;;7.42;3.00;;;;;;;19.75;33.51;100818.38;1712929;83;27321;-64
2023/10/17 11:39:06;;;;;;;7.28;3.22;;;;;;;18.90;33.47;100823.95;1713904;83;25548;-64
2023/10/17 11:41:53;;;;;;;5.28;3.00;;;;;;;18.68;35.41;100817.90;1714055;83;25576;-64
2023/10/17 11:44:18;;;;;;;8.48;2.77;;;;;;;18.95;35.08;100810.80;1713390;83;26471;-62
2023/10/17 11:47:03;;;;;;;6.30;3.17;;;;;;;18.99;34.41;100817.16;1714200;83;25632;-61
2023/10/17 11:49:41;;;;;;;7.25;3.55;;;;;;;18.92;34.91;100807.38;1713931;83;27323;-64
2023/10/17 11:52:14;;;;;;;5.90;3.80;;;;;;;18.91;35.08;100804.41;1713950;83;25406;-63
2023/10/17 11:55:00;;;;;;;5.62;3.33;;;;;;;19.15;35.55;100801.27;1714027;83;25635;-64
2023/10/17 11:57:29;;;;;;;5.50;2.42;;;;;;;19.14;36.13;100807.92;1687143;83;25634;-64
2023/10/17 12:02:49;;;;;;;4.87;2.22;;;;;;;19.99;35.42;100798.69;1715092;82;27722;-63
2023/10/17 12:05:19;;;;;;;5.72;2.25;;;;;;;20.43;35.60;100792.06;1732343;82;25642;-63
2023/10/17 12:13:06;;;;;;;3.30;1.90;;;;;;;21.62;32.85;100779.69;1692523;80;27362;-62
2023/10/17 12:15:30;;;;;;;4.95;2.37;;;;;;;21.27;31.93;100788.41;1660536;85;27244;-61
2023/10/17 12:17:56;;;;;;;8.83;6.75;;;;;;;20.73;31.75;100789.50;1661336;85;26288;-61
2023/10/17 12:20:26;;;;;;;10.00;2.58;;;;;;;20.14;31.71;100786.83;1673709;85;25722;-61
2023/10/17 12:22:57;;;;;;;112.12;86.08;;;;;;;19.58;32.23;100796.22;1676980;85;26647;-62
2023/10/17 12:25:24;;;;;;;7.50;3.98;;;;;;;18.98;32.19;100792.25;1670425;85;25585;-62
2023/10/17 12:27:56;;;;;;;6.53;1.92;;;;;;;18.33;32.93;100784.86;1681311;84;27876;-59
2023/10/17 12:30:35;;;;;;;4.00;2.00;;;;;;;17.86;33.80;100787.09;1661550;85;25728;-61
2023/10/17 12:32:58;;;;;;;9.70;2.30;;;;;;;17.34;34.12;100783.72;1660154;85;25641;-59
2023/10/17 12:35:22;;;;;;;5.22;2.42;;;;;;;16.84;34.85;100777.97;1668886;85;26304;-60
2023/10/17 12:37:52;;;;;;;5.22;2.02;;;;;;;16.40;35.28;100771.63;1661700;86;25594;-60
2023/10/17 12:40:19;;;;;;;6.92;2.70;;;;;;;15.97;35.79;100770.89;1673148;85;27700;-63
2023/10/17 12:42:46;;;;;;;4.87;2.20;;;;;;;15.64;36.38;100775.66;1654374;86;25470;-61
2023/10/17 12:45:20;;;;;;;5.85;2.45;;;;;;;15.37;37.29;100767.98;1674828;85;25409;-61
2023/10/17 12:47:47;;;;;;;3.87;2.20;;;;;;;15.55;38.13;100771.42;1675145;84;25960;-61
2023/10/17 12:50:18;;;;;;;5.85;2.40;;;;;;;15.46;37.54;100775.00;1681258;85;25668;-61
2023/10/17 12:52:44;;;;;;;5.03;2.37;;;;;;;15.44;38.44;100770.98;1675163;84;27655;-61
2023/10/17 12:55:11;;;;;;;8.00;2.30;;;;;;;15.86;39.23;100765.02;1681151;85;25474;-61
2023/10/17 12:57:39;;;;;;;6.33;2.50;;;;;;;16.10;38.60;100756.73;1681221;85;25456;-62
2023/10/17 13:00:09;;;;;;;5.83;2.45;;;;;;;16.13;37.77;100750.61;1668377;85;25622;-61
2023/10/17 13:02:40;;;;;;;5.78;2.15;;;;;;;16.00;38.07;100751.68;1670266;85;25555;-61
2023/10/17 13:05:09;;;;;;;4.35;2.33;;;;;;;15.69;37.58;100749.56;1681264;85;27497;-63
2023/10/17 13:07:40;;;;;;;3.98;2.17;;;;;;;15.26;38.02;100746.56;1675145;85;25462;-62
2023/10/17 13:10:11;;;;;;;4.03;2.17;;;;;;;15.29;39.12;100747.84;1681273;85;25583;-60
2023/10/17 13:12:38;;;;;;;3.30;2.02;;;;;;;15.56;38.61;100746.55;1680672;85;25795;-61
2023/10/17 13:15:08;;;;;;;5.95;2.12;;;;;;;15.80;39.00;100751.38;1674121;85;25490;-60
2023/10/17 13:17:39;;;;;;;5.62;2.30;;;;;;;15.85;38.21;100744.90;1671640;85;27645;-60
2023/10/17 13:20:09;;;;;;;6.22;3.22;;;;;;;15.92;39.26;100745.18;1671723;85;25560;-61
2023/10/17 13:22:40;;;;;;;6.92;2.45;;;;;;;15.97;38.37;100745.52;1677882;85;25479;-62
2023/10/17 13:25:07;;;;;;;5.47;2.30;;;;;;;16.32;39.12;100747.94;1673580;85;26166;-62
2023/10/17 13:27:34;;;;;;;5.33;2.02;;;;;;;16.75;38.46;100742.02;1676411;85;25449;-60
2023/10/17 13:30:01;;;;;;;5.72;2.72;;;;;;;17.10;38.22;100735.34;1676977;85;27876;-61
2023/10/17 13:32:30;;;;;;;4.60;2.05;;;;;;;17.25;37.63;100733.27;1636155;87;26030;-61
2023/10/17 13:34:55;;;;;;;2.90;1.57;;;;;;;17.34;36.83;100733.94;1636000;87;25627;-62
2023/10/17 13:37:22;;;;;;;2.60;1.80;;;;;;;17.47;36.57;100725.70;1635641;87;26031;-61
2023/10/17 13:39:48;;;;;;;3.92;1.67;;;;;;;17.42;36.64;100731.41;1635974;87;25622;-61
2023/10/17 13:42:15;;;;;;;4.92;1.60;;;;;;;17.43;35.74;100727.55;1636288;87;27301;-60
2023/10/17 13:44:42;;;;;;;5.20;1.70;;;;;;;17.26;35.38;100721.18;1608897;87;25748;-60
2023/10/17 13:47:08;;;;;;;5.25;1.60;;;;;;;17.18;35.27;100724.28;1636351;87;25434;-61
2023/10/17 13:49:35;;;;;;;7.47;1.87;;;;;;;17.07;35.83;100723.72;1636087;87;25969;-62
2023/10/17 13:52:03;;;;;;;4.53;1.45;;;;;;;17.15;35.78;100716.76;1636242;87;25511;-61
2023/10/17 13:54:37;;;;;;;5.62;1.50;;;;;;;17.20;35.58;100720.39;1636270;87;28096;-62
2023/10/17 13:57:07;;;;;;;3.02;1.65;;;;;;;16.96;35.57;100720.66;1635826;87;25491;-61
2023/10/17 13:59:46;;;;;;;6.08;1.65;;;;;;;16.73;35.74;100726.52;1636322;87;25585;-61
2023/10/17 14:02:09;;;;;;;5.35;2.12;;;;;;;16.67;36.04;100713.41;1635380;87;25629;-60
2023/10/17 14:04:36;;;;;;;3.83;2.37;;;;;;;16.67;36.35;100718.33;1636016;87;25646;-61
2023/10/17 14:07:05;;;;;;;2.70;1.60;;;;;;;16.65;36.06;100711.02;1636145;87;28362;-61